sensor_id;sensor_type;location;lat;lon;timestamp;P1;durP1;ratioP1;P2;durP2;ratioP2
12908;SDS011;6522;49.622;6.126;2023-06-22T00:02:14;27.60;;;25.27;;
12908;SDS011;6522;49.622;6.126;2023-06-22T00:05:01;25.03;;;23.17;;
12908;SDS011;6522;49.622;6.126;2023-06-22T00:07:47;25.85;;;23.87;;
12908;SDS011;6522;49.622;6.126;2023-06-22T00:10:34;25.50;;;23.43;;
12908;SDS011;6522;49.622;6.126;2023-06-22T00:13:21;26.87;;;24.37;;
12908;SDS011;6522;49.622;6.126;2023-06-22T00:16:08;24.85;;;22.77;;
12908;SDS011;6522;49.622;6.126;2023-06-22T00:18:54;27.03;;;24.50;;
12908;SDS011;6522;49.622;6.126;2023-06-22T00:21:41;25.95;;;23.85;;
12908;SDS011;6522;49.622;6.126;2023-06-22T00:24:28;25.92;;;23.83;;
12908;SDS011;6522;49.622;6.126;2023-06-22T00:27:15;24.43;;;22.63;;
12908;SDS011;6522;49.622;6.126;2023-06-22T00:30:02;24.53;;;22.43;;
12908;SDS011;6522;49.622;6.126;2023-06-22T00:32:48;24.37;;;22.37;;
12908;SDS011;6522;49.622;6.126;2023-06-22T00:35:35;24.67;;;22.55;;
12908;SDS011;6522;49.622;6.126;2023-06-22T00:38:22;24.57;;;22.57;;
12908;SDS011;6522;49.622;6.126;2023-06-22T00:41:09;23.85;;;21.58;;
12908;SDS011;6522;49.622;6.126;2023-06-22T00:43:55;24.52;;;22.02;;
12908;SDS011;6522;49.622;6.126;2023-06-22T00:46:42;24.53;;;22.43;;
12908;SDS011;6522;49.622;6.126;2023-06-22T00:49:29;24.52;;;22.33;;
12908;SDS011;6522;49.622;6.126;2023-06-22T00:52:16;25.67;;;23.08;;
12908;SDS011;6522;49.622;6.126;2023-06-22T00:55:03;24.40;;;22.13;;
12908;SDS011;6522;49.622;6.126;2023-06-22T00:57:50;22.62;;;20.52;;
12908;SDS011;6522;49.622;6.126;2023-06-22T01:00:37;22.85;;;20.85;;
12908;SDS011;6522;49.622;6.126;2023-06-22T01:03:24;23.90;;;21.47;;
12908;SDS011;6522;49.622;6.126;2023-06-22T01:06:18;25.90;;;23.25;;
12908;SDS011;6522;49.622;6.126;2023-06-22T01:09:00;27.52;;;24.80;;
12908;SDS011;6522;49.622;6.126;2023-06-22T01:11:50;28.70;;;25.70;;
12908;SDS011;6522;49.622;6.126;2023-06-22T01:17:21;27.37;;;24.77;;
12908;SDS011;6522;49.622;6.126;2023-06-22T01:20:07;25.92;;;23.60;;
12908;SDS011;6522;49.622;6.126;2023-06-22T01:26:08;25.35;;;22.65;;
12908;SDS011;6522;49.622;6.126;2023-06-22T01:28:54;27.25;;;24.63;;
12908;SDS011;6522;49.622;6.126;2023-06-22T01:31:40;26.00;;;23.50;;
12908;SDS011;6522;49.622;6.126;2023-06-22T01:34:27;27.30;;;24.65;;
12908;SDS011;6522;49.622;6.126;2023-06-22T01:37:14;26.87;;;24.17;;
12908;SDS011;6522;49.622;6.126;2023-06-22T01:40:01;25.97;;;23.47;;
12908;SDS011;6522;49.622;6.126;2023-06-22T01:42:47;26.87;;;24.37;;
12908;SDS011;6522;49.622;6.126;2023-06-22T01:45:34;25.70;;;23.47;;
12908;SDS011;6522;49.622;6.126;2023-06-22T01:48:21;27.42;;;24.73;;
12908;SDS011;6522;49.622;6.126;2023-06-22T01:51:08;25.20;;;22.60;;
12908;SDS011;6522;49.622;6.126;2023-06-22T01:53:55;24.53;;;22.40;;
12908;SDS011;6522;49.622;6.126;2023-06-22T01:56:42;26.77;;;24.17;;
12908;SDS011;6522;49.622;6.126;2023-06-22T01:59:32;28.73;;;25.62;;
12908;SDS011;6522;49.622;6.126;2023-06-22T02:02:16;27.07;;;24.37;;
12908;SDS011;6522;49.622;6.126;2023-06-22T02:05:03;29.42;;;26.37;;
12908;SDS011;6522;49.622;6.126;2023-06-22T02:07:52;28.12;;;25.27;;
12908;SDS011;6522;49.622;6.126;2023-06-22T02:10:37;28.90;;;25.80;;
12908;SDS011;6522;49.622;6.126;2023-06-22T02:13:24;26.37;;;23.77;;
12908;SDS011;6522;49.622;6.126;2023-06-22T02:16:13;28.02;;;25.12;;
12908;SDS011;6522;49.622;6.126;2023-06-22T02:19:00;27.50;;;24.52;;
12908;SDS011;6522;49.622;6.126;2023-06-22T02:21:46;26.90;;;24.10;;
12908;SDS011;6522;49.622;6.126;2023-06-22T02:24:33;27.75;;;25.05;;
12908;SDS011;6522;49.622;6.126;2023-06-22T02:27:20;27.27;;;24.37;;
12908;SDS011;6522;49.622;6.126;2023-06-22T02:30:07;28.07;;;25.40;;
12908;SDS011;6522;49.622;6.126;2023-06-22T02:32:54;29.40;;;26.40;;
12908;SDS011;6522;49.622;6.126;2023-06-22T02:35:43;28.65;;;25.55;;
12908;SDS011;6522;49.622;6.126;2023-06-22T02:38:31;27.40;;;24.50;;
12908;SDS011;6522;49.622;6.126;2023-06-22T02:41:17;27.23;;;24.52;;
12908;SDS011;6522;49.622;6.126;2023-06-22T02:44:04;29.30;;;26.30;;
12908;SDS011;6522;49.622;6.126;2023-06-22T02:46:50;27.60;;;25.13;;
12908;SDS011;6522;49.622;6.126;2023-06-22T02:49:37;28.50;;;25.50;;
12908;SDS011;6522;49.622;6.126;2023-06-22T02:52:24;27.40;;;24.50;;
12908;SDS011;6522;49.622;6.126;2023-06-22T02:55:10;26.60;;;24.00;;
12908;SDS011;6522;49.622;6.126;2023-06-22T02:57:57;30.23;;;26.10;;
12908;SDS011;6522;49.622;6.126;2023-06-22T03:00:44;27.77;;;25.05;;
12908;SDS011;6522;49.622;6.126;2023-06-22T03:03:31;27.77;;;24.97;;
12908;SDS011;6522;49.622;6.126;2023-06-22T03:06:17;27.45;;;24.30;;
12908;SDS011;6522;49.622;6.126;2023-06-22T03:09:04;27.42;;;24.70;;
12908;SDS011;6522;49.622;6.126;2023-06-22T03:11:51;24.47;;;22.07;;
12908;SDS011;6522;49.622;6.126;2023-06-22T03:14:38;26.90;;;24.20;;
12908;SDS011;6522;49.622;6.126;2023-06-22T03:17:24;27.90;;;25.00;;
12908;SDS011;6522;49.622;6.126;2023-06-22T03:20:11;25.00;;;22.30;;
12908;SDS011;6522;49.622;6.126;2023-06-22T03:22:58;26.90;;;23.95;;
12908;SDS011;6522;49.622;6.126;2023-06-22T03:25:45;27.00;;;24.20;;
12908;SDS011;6522;49.622;6.126;2023-06-22T03:28:32;27.10;;;24.30;;
12908;SDS011;6522;49.622;6.126;2023-06-22T03:31:18;28.23;;;25.23;;
12908;SDS011;6522;49.622;6.126;2023-06-22T03:34:05;27.83;;;25.08;;
12908;SDS011;6522;49.622;6.126;2023-06-22T03:36:52;26.45;;;23.75;;
12908;SDS011;6522;49.622;6.126;2023-06-22T03:39:39;25.40;;;22.70;;
12908;SDS011;6522;49.622;6.126;2023-06-22T03:42:26;26.90;;;24.15;;
12908;SDS011;6522;49.622;6.126;2023-06-22T03:45:13;25.67;;;22.98;;
12908;SDS011;6522;49.622;6.126;2023-06-22T03:48:00;26.50;;;23.80;;
12908;SDS011;6522;49.622;6.126;2023-06-22T03:50:46;25.40;;;22.62;;
12908;SDS011;6522;49.622;6.126;2023-06-22T03:53:33;25.00;;;22.50;;
12908;SDS011;6522;49.622;6.126;2023-06-22T03:56:20;24.17;;;21.47;;
12908;SDS011;6522;49.622;6.126;2023-06-22T03:59:07;26.17;;;23.58;;
12908;SDS011;6522;49.622;6.126;2023-06-22T04:01:53;25.12;;;22.52;;
12908;SDS011;6522;49.622;6.126;2023-06-22T04:04:40;28.03;;;22.23;;
12908;SDS011;6522;49.622;6.126;2023-06-22T04:07:27;25.20;;;22.50;;
12908;SDS011;6522;49.622;6.126;2023-06-22T04:10:14;24.20;;;21.83;;
12908;SDS011;6522;49.622;6.126;2023-06-22T04:13:01;22.83;;;20.50;;
12908;SDS011;6522;49.622;6.126;2023-06-22T04:15:47;24.17;;;21.77;;
12908;SDS011;6522;49.622;6.126;2023-06-22T04:18:34;23.33;;;20.97;;
12908;SDS011;6522;49.622;6.126;2023-06-22T04:21:20;24.33;;;21.73;;
12908;SDS011;6522;49.622;6.126;2023-06-22T04:24:07;23.38;;;20.88;;
12908;SDS011;6522;49.622;6.126;2023-06-22T04:26:54;22.13;;;20.10;;
12908;SDS011;6522;49.622;6.126;2023-06-22T04:29:40;23.10;;;20.80;;
12908;SDS011;6522;49.622;6.126;2023-06-22T04:32:28;23.77;;;20.70;;
12908;SDS011;6522;49.622;6.126;2023-06-22T04:35:14;22.60;;;20.40;;
12908;SDS011;6522;49.622;6.126;2023-06-22T04:38:01;22.10;;;19.90;;
12908;SDS011;6522;49.622;6.126;2023-06-22T04:40:49;21.90;;;19.70;;
12908;SDS011;6522;49.622;6.126;2023-06-22T04:43:36;22.25;;;19.52;;
12908;SDS011;6522;49.622;6.126;2023-06-22T04:46:22;21.40;;;19.20;;
12908;SDS011;6522;49.622;6.126;2023-06-22T04:49:09;19.30;;;17.40;;
12908;SDS011;6522;49.622;6.126;2023-06-22T04:51:59;21.50;;;19.30;;
12908;SDS011;6522;49.622;6.126;2023-06-22T04:54:45;22.67;;;20.27;;
12908;SDS011;6522;49.622;6.126;2023-06-22T04:57:32;21.80;;;19.70;;
12908;SDS011;6522;49.622;6.126;2023-06-22T05:00:19;21.52;;;19.08;;
12908;SDS011;6522;49.622;6.126;2023-06-22T05:03:05;21.43;;;19.23;;
12908;SDS011;6522;49.622;6.126;2023-06-22T05:05:52;19.67;;;17.65;;
12908;SDS011;6522;49.622;6.126;2023-06-22T05:08:39;19.85;;;17.75;;
12908;SDS011;6522;49.622;6.126;2023-06-22T05:11:26;20.50;;;18.33;;
12908;SDS011;6522;49.622;6.126;2023-06-22T05:14:12;19.05;;;17.10;;
12908;SDS011;6522;49.622;6.126;2023-06-22T05:16:59;17.85;;;15.98;;
12908;SDS011;6522;49.622;6.126;2023-06-22T05:19:46;17.30;;;15.50;;
12908;SDS011;6522;49.622;6.126;2023-06-22T05:22:36;17.03;;;15.27;;
12908;SDS011;6522;49.622;6.126;2023-06-22T05:25:23;17.40;;;15.70;;
12908;SDS011;6522;49.622;6.126;2023-06-22T05:28:10;16.57;;;15.03;;
12908;SDS011;6522;49.622;6.126;2023-06-22T05:30:57;16.00;;;14.40;;
12908;SDS011;6522;49.622;6.126;2023-06-22T05:33:43;16.73;;;15.13;;
12908;SDS011;6522;49.622;6.126;2023-06-22T05:36:30;17.10;;;14.60;;
12908;SDS011;6522;49.622;6.126;2023-06-22T05:39:17;16.62;;;14.93;;
12908;SDS011;6522;49.622;6.126;2023-06-22T05:42:05;17.83;;;16.13;;
12908;SDS011;6522;49.622;6.126;2023-06-22T05:44:52;16.33;;;14.63;;
12908;SDS011;6522;49.622;6.126;2023-06-22T05:47:38;15.82;;;14.23;;
12908;SDS011;6522;49.622;6.126;2023-06-22T05:50:25;17.60;;;16.03;;
12908;SDS011;6522;49.622;6.126;2023-06-22T05:53:11;15.35;;;13.85;;
12908;SDS011;6522;49.622;6.126;2023-06-22T05:55:58;16.80;;;15.23;;
12908;SDS011;6522;49.622;6.126;2023-06-22T05:58:45;15.32;;;13.93;;
12908;SDS011;6522;49.622;6.126;2023-06-22T06:01:32;16.60;;;15.20;;
12908;SDS011;6522;49.622;6.126;2023-06-22T06:04:22;15.70;;;14.20;;
12908;SDS011;6522;49.622;6.126;2023-06-22T06:07:08;14.90;;;13.50;;
12908;SDS011;6522;49.622;6.126;2023-06-22T06:09:55;16.10;;;14.67;;
12908;SDS011;6522;49.622;6.126;2023-06-22T06:12:42;16.27;;;14.77;;
12908;SDS011;6522;49.622;6.126;2023-06-22T06:15:29;15.82;;;14.30;;
12908;SDS011;6522;49.622;6.126;2023-06-22T06:18:16;16.00;;;14.50;;
12908;SDS011;6522;49.622;6.126;2023-06-22T06:21:03;16.10;;;14.40;;
12908;SDS011;6522;49.622;6.126;2023-06-22T06:23:49;15.93;;;14.53;;
12908;SDS011;6522;49.622;6.126;2023-06-22T06:26:36;16.73;;;15.13;;
12908;SDS011;6522;49.622;6.126;2023-06-22T06:29:23;14.63;;;13.27;;
12908;SDS011;6522;49.622;6.126;2023-06-22T06:32:10;19.00;;;14.47;;
12908;SDS011;6522;49.622;6.126;2023-06-22T06:34:57;16.60;;;15.10;;
12908;SDS011;6522;49.622;6.126;2023-06-22T06:37:47;15.70;;;14.20;;
12908;SDS011;6522;49.622;6.126;2023-06-22T06:40:33;14.87;;;13.48;;
12908;SDS011;6522;49.622;6.126;2023-06-22T06:43:19;16.30;;;14.70;;
12908;SDS011;6522;49.622;6.126;2023-06-22T06:46:06;15.80;;;14.20;;
12908;SDS011;6522;49.622;6.126;2023-06-22T06:48:53;15.20;;;13.80;;
12908;SDS011;6522;49.622;6.126;2023-06-22T06:51:39;15.60;;;14.00;;
12908;SDS011;6522;49.622;6.126;2023-06-22T06:54:26;16.30;;;14.80;;
12908;SDS011;6522;49.622;6.126;2023-06-22T06:57:13;14.90;;;13.37;;
12908;SDS011;6522;49.622;6.126;2023-06-22T07:00:00;15.57;;;13.93;;
12908;SDS011;6522;49.622;6.126;2023-06-22T07:02:47;16.30;;;14.63;;
12908;SDS011;6522;49.622;6.126;2023-06-22T07:05:33;14.40;;;13.20;;
12908;SDS011;6522;49.622;6.126;2023-06-22T07:08:20;14.07;;;12.60;;
12908;SDS011;6522;49.622;6.126;2023-06-22T07:11:06;13.93;;;12.93;;
12908;SDS011;6522;49.622;6.126;2023-06-22T07:13:53;14.33;;;13.13;;
12908;SDS011;6522;49.622;6.126;2023-06-22T07:16:40;16.57;;;15.13;;
12908;SDS011;6522;49.622;6.126;2023-06-22T07:19:27;16.63;;;15.33;;
12908;SDS011;6522;49.622;6.126;2023-06-22T07:22:13;13.93;;;12.82;;
12908;SDS011;6522;49.622;6.126;2023-06-22T07:25:00;16.40;;;15.20;;
12908;SDS011;6522;49.622;6.126;2023-06-22T07:27:57;17.20;;;15.50;;
12908;SDS011;6522;49.622;6.126;2023-06-22T07:30:33;18.27;;;16.53;;
12908;SDS011;6522;49.622;6.126;2023-06-22T07:33:20;18.20;;;16.47;;
12908;SDS011;6522;49.622;6.126;2023-06-22T07:36:06;17.00;;;15.90;;
12908;SDS011;6522;49.622;6.126;2023-06-22T07:38:53;19.13;;;17.73;;
12908;SDS011;6522;49.622;6.126;2023-06-22T07:41:40;19.93;;;18.53;;
12908;SDS011;6522;49.622;6.126;2023-06-22T07:44:27;19.37;;;18.07;;
12908;SDS011;6522;49.622;6.126;2023-06-22T07:47:14;19.60;;;18.10;;
12908;SDS011;6522;49.622;6.126;2023-06-22T07:50:01;20.57;;;18.57;;
12908;SDS011;6522;49.622;6.126;2023-06-22T07:52:47;19.00;;;17.60;;
12908;SDS011;6522;49.622;6.126;2023-06-22T07:55:34;18.10;;;16.80;;
12908;SDS011;6522;49.622;6.126;2023-06-22T07:58:20;20.10;;;18.60;;
12908;SDS011;6522;49.622;6.126;2023-06-22T08:01:07;18.63;;;17.23;;
12908;SDS011;6522;49.622;6.126;2023-06-22T08:03:54;18.87;;;17.27;;
12908;SDS011;6522;49.622;6.126;2023-06-22T08:06:41;19.70;;;18.07;;
12908;SDS011;6522;49.622;6.126;2023-06-22T08:09:30;16.73;;;15.38;;
12908;SDS011;6522;49.622;6.126;2023-06-22T08:12:17;17.40;;;16.00;;
12908;SDS011;6522;49.622;6.126;2023-06-22T08:15:03;17.80;;;16.50;;
12908;SDS011;6522;49.622;6.126;2023-06-22T08:17:50;16.00;;;14.50;;
12908;SDS011;6522;49.622;6.126;2023-06-22T08:20:37;17.50;;;16.20;;
12908;SDS011;6522;49.622;6.126;2023-06-22T08:23:24;17.13;;;15.80;;
12908;SDS011;6522;49.622;6.126;2023-06-22T08:26:10;16.30;;;15.10;;
12908;SDS011;6522;49.622;6.126;2023-06-22T08:28:57;16.67;;;15.27;;
12908;SDS011;6522;49.622;6.126;2023-06-22T08:31:44;15.13;;;13.83;;
12908;SDS011;6522;49.622;6.126;2023-06-22T08:34:31;13.97;;;12.87;;
12908;SDS011;6522;49.622;6.126;2023-06-22T08:37:18;18.30;;;16.70;;
12908;SDS011;6522;49.622;6.126;2023-06-22T08:40:06;23.97;;;21.67;;
12908;SDS011;6522;49.622;6.126;2023-06-22T08:42:52;21.30;;;19.60;;
12908;SDS011;6522;49.622;6.126;2023-06-22T08:45:38;25.37;;;23.20;;
12908;SDS011;6522;49.622;6.126;2023-06-22T08:48:25;26.87;;;24.27;;
12908;SDS011;6522;49.622;6.126;2023-06-22T08:51:12;26.90;;;24.40;;
12908;SDS011;6522;49.622;6.126;2023-06-22T08:53:59;27.60;;;25.10;;
12908;SDS011;6522;49.622;6.126;2023-06-22T08:56:45;29.60;;;26.60;;
12908;SDS011;6522;49.622;6.126;2023-06-22T08:59:32;30.00;;;26.98;;
12908;SDS011;6522;49.622;6.126;2023-06-22T09:02:19;29.70;;;26.90;;
12908;SDS011;6522;49.622;6.126;2023-06-22T09:05:06;30.13;;;27.07;;
12908;SDS011;6522;49.622;6.126;2023-06-22T09:07:52;28.03;;;25.20;;
12908;SDS011;6522;49.622;6.126;2023-06-22T09:10:39;30.23;;;27.10;;
12908;SDS011;6522;49.622;6.126;2023-06-22T09:13:26;4.50;;;4.30;;
12908;SDS011;6522;49.622;6.126;2023-06-22T09:16:12;5.70;;;5.50;;
12908;SDS011;6522;49.622;6.126;2023-06-22T09:19:00;5.30;;;5.10;;
12908;SDS011;6522;49.622;6.126;2023-06-22T09:21:46;6.13;;;5.93;;
12908;SDS011;6522;49.622;6.126;2023-06-22T09:24:34;5.28;;;5.07;;
12908;SDS011;6522;49.622;6.126;2023-06-22T09:27:20;7.13;;;6.87;;
12908;SDS011;6522;49.622;6.126;2023-06-22T09:30:07;6.53;;;6.22;;
12908;SDS011;6522;49.622;6.126;2023-06-22T09:32:54;7.93;;;7.57;;
12908;SDS011;6522;49.622;6.126;2023-06-22T09:35:41;6.90;;;6.60;;
12908;SDS011;6522;49.622;6.126;2023-06-22T09:38:27;7.07;;;6.67;;
12908;SDS011;6522;49.622;6.126;2023-06-22T09:41:15;6.23;;;6.03;;
12908;SDS011;6522;49.622;6.126;2023-06-22T09:44:02;4.80;;;4.60;;
12908;SDS011;6522;49.622;6.126;2023-06-22T09:46:48;4.30;;;4.10;;
12908;SDS011;6522;49.622;6.126;2023-06-22T09:49:36;5.93;;;5.67;;
12908;SDS011;6522;49.622;6.126;2023-06-22T09:52:22;5.90;;;5.60;;
12908;SDS011;6522;49.622;6.126;2023-06-22T09:55:09;6.17;;;5.87;;
12908;SDS011;6522;49.622;6.126;2023-06-22T09:57:55;6.60;;;6.30;;
12908;SDS011;6522;49.622;6.126;2023-06-22T10:00:42;8.50;;;8.10;;
12908;SDS011;6522;49.622;6.126;2023-06-22T10:03:28;9.65;;;9.25;;
12908;SDS011;6522;49.622;6.126;2023-06-22T10:06:15;15.70;;;15.10;;
12908;SDS011;6522;49.622;6.126;2023-06-22T10:09:02;18.40;;;17.70;;
12908;SDS011;6522;49.622;6.126;2023-06-22T10:11:48;19.20;;;18.40;;
12908;SDS011;6522;49.622;6.126;2023-06-22T10:14:35;29.70;;;28.00;;
12908;SDS011;6522;49.622;6.126;2023-06-22T10:17:22;28.77;;;26.93;;
12908;SDS011;6522;49.622;6.126;2023-06-22T10:20:08;30.47;;;28.67;;
12908;SDS011;6522;49.622;6.126;2023-06-22T10:22:58;28.10;;;26.60;;
12908;SDS011;6522;49.622;6.126;2023-06-22T10:25:45;31.43;;;29.47;;
12908;SDS011;6522;49.622;6.126;2023-06-22T10:28:31;28.80;;;27.07;;
12908;SDS011;6522;49.622;6.126;2023-06-22T10:31:18;29.37;;;27.47;;
12908;SDS011;6522;49.622;6.126;2023-06-22T10:34:04;27.03;;;25.47;;
12908;SDS011;6522;49.622;6.126;2023-06-22T10:36:51;25.80;;;24.20;;
12908;SDS011;6522;49.622;6.126;2023-06-22T10:39:38;25.33;;;23.70;;
12908;SDS011;6522;49.622;6.126;2023-06-22T10:42:25;26.50;;;24.90;;
12908;SDS011;6522;49.622;6.126;2023-06-22T10:45:12;25.70;;;24.03;;
12908;SDS011;6522;49.622;6.126;2023-06-22T10:47:58;29.13;;;27.43;;
12908;SDS011;6522;49.622;6.126;2023-06-22T10:50:46;27.23;;;25.73;;
12908;SDS011;6522;49.622;6.126;2023-06-22T10:53:33;27.80;;;26.10;;
12908;SDS011;6522;49.622;6.126;2023-06-22T10:56:20;26.97;;;25.53;;
12908;SDS011;6522;49.622;6.126;2023-06-22T10:59:07;27.50;;;26.00;;
12908;SDS011;6522;49.622;6.126;2023-06-22T11:01:53;28.13;;;26.33;;
12908;SDS011;6522;49.622;6.126;2023-06-22T11:04:40;26.17;;;24.57;;
12908;SDS011;6522;49.622;6.126;2023-06-22T11:07:27;26.40;;;24.90;;
12908;SDS011;6522;49.622;6.126;2023-06-22T11:10:15;25.87;;;24.37;;
12908;SDS011;6522;49.622;6.126;2023-06-22T11:13:02;26.77;;;25.37;;
12908;SDS011;6522;49.622;6.126;2023-06-22T11:15:48;26.13;;;24.73;;
12908;SDS011;6522;49.622;6.126;2023-06-22T11:18:36;24.33;;;22.87;;
12908;SDS011;6522;49.622;6.126;2023-06-22T11:21:23;26.37;;;24.77;;
12908;SDS011;6522;49.622;6.126;2023-06-22T11:24:09;27.60;;;25.97;;
12908;SDS011;6522;49.622;6.126;2023-06-22T11:26:56;27.10;;;25.40;;
12908;SDS011;6522;49.622;6.126;2023-06-22T11:29:43;27.50;;;25.67;;
12908;SDS011;6522;49.622;6.126;2023-06-22T11:32:29;26.83;;;25.33;;
12908;SDS011;6522;49.622;6.126;2023-06-22T11:35:16;26.17;;;24.47;;
12908;SDS011;6522;49.622;6.126;2023-06-22T11:38:03;26.30;;;24.70;;
12908;SDS011;6522;49.622;6.126;2023-06-22T11:40:50;27.20;;;25.40;;
12908;SDS011;6522;49.622;6.126;2023-06-22T11:43:37;25.02;;;23.52;;
12908;SDS011;6522;49.622;6.126;2023-06-22T11:46:24;26.03;;;24.43;;
12908;SDS011;6522;49.622;6.126;2023-06-22T11:49:10;27.00;;;25.20;;
12908;SDS011;6522;49.622;6.126;2023-06-22T11:51:57;24.70;;;23.47;;
12908;SDS011;6522;49.622;6.126;2023-06-22T11:54:44;27.20;;;25.70;;
12908;SDS011;6522;49.622;6.126;2023-06-22T11:57:32;27.67;;;26.03;;
12908;SDS011;6522;49.622;6.126;2023-06-22T12:00:17;27.90;;;26.10;;
12908;SDS011;6522;49.622;6.126;2023-06-22T12:03:04;26.50;;;24.63;;
12908;SDS011;6522;49.622;6.126;2023-06-22T12:05:51;28.43;;;25.80;;
12908;SDS011;6522;49.622;6.126;2023-06-22T12:08:38;27.53;;;25.73;;
12908;SDS011;6522;49.622;6.126;2023-06-22T12:11:25;28.63;;;26.73;;
12908;SDS011;6522;49.622;6.126;2023-06-22T12:14:11;27.57;;;25.77;;
12908;SDS011;6522;49.622;6.126;2023-06-22T12:16:58;27.30;;;25.70;;
12908;SDS011;6522;49.622;6.126;2023-06-22T12:19:45;26.80;;;25.30;;
12908;SDS011;6522;49.622;6.126;2023-06-22T12:22:32;25.90;;;24.43;;
12908;SDS011;6522;49.622;6.126;2023-06-22T12:25:18;27.80;;;25.73;;
12908;SDS011;6522;49.622;6.126;2023-06-22T12:28:05;27.90;;;25.90;;
12908;SDS011;6522;49.622;6.126;2023-06-22T12:30:52;28.73;;;26.83;;
12908;SDS011;6522;49.622;6.126;2023-06-22T12:33:38;27.67;;;25.87;;
12908;SDS011;6522;49.622;6.126;2023-06-22T12:36:25;26.87;;;25.17;;
12908;SDS011;6522;49.622;6.126;2023-06-22T12:39:12;26.37;;;24.87;;
12908;SDS011;6522;49.622;6.126;2023-06-22T12:41:58;27.90;;;26.30;;
12908;SDS011;6522;49.622;6.126;2023-06-22T12:44:45;28.23;;;26.50;;
12908;SDS011;6522;49.622;6.126;2023-06-22T12:47:32;28.27;;;26.37;;
12908;SDS011;6522;49.622;6.126;2023-06-22T12:50:18;26.07;;;24.27;;
12908;SDS011;6522;49.622;6.126;2023-06-22T12:53:05;29.03;;;27.07;;
12908;SDS011;6522;49.622;6.126;2023-06-22T12:55:52;27.53;;;25.70;;
12908;SDS011;6522;49.622;6.126;2023-06-22T12:58:38;25.83;;;24.13;;
12908;SDS011;6522;49.622;6.126;2023-06-22T13:01:25;24.90;;;23.33;;
12908;SDS011;6522;49.622;6.126;2023-06-22T13:04:12;22.40;;;20.80;;
12908;SDS011;6522;49.622;6.126;2023-06-22T13:06:58;35.80;;;32.27;;
12908;SDS011;6522;49.622;6.126;2023-06-22T13:09:45;31.03;;;29.07;;
12908;SDS011;6522;49.622;6.126;2023-06-22T13:12:31;25.67;;;23.87;;
12908;SDS011;6522;49.622;6.126;2023-06-22T13:15:18;24.33;;;22.70;;
12908;SDS011;6522;49.622;6.126;2023-06-22T13:18:05;12.87;;;12.27;;
12908;SDS011;6522;49.622;6.126;2023-06-22T13:20:52;8.77;;;8.37;;
12908;SDS011;6522;49.622;6.126;2023-06-22T13:23:39;7.47;;;7.17;;
12908;SDS011;6522;49.622;6.126;2023-06-22T13:26:25;7.80;;;7.50;;
12908;SDS011;6522;49.622;6.126;2023-06-22T13:29:12;6.20;;;5.90;;
12908;SDS011;6522;49.622;6.126;2023-06-22T13:31:59;6.20;;;5.90;;
12908;SDS011;6522;49.622;6.126;2023-06-22T13:34:45;4.70;;;4.50;;
12908;SDS011;6522;49.622;6.126;2023-06-22T13:37:32;4.50;;;4.30;;
12908;SDS011;6522;49.622;6.126;2023-06-22T13:40:18;4.43;;;4.23;;
12908;SDS011;6522;49.622;6.126;2023-06-22T13:43:05;4.00;;;3.80;;
12908;SDS011;6522;49.622;6.126;2023-06-22T13:45:52;3.70;;;3.50;;
12908;SDS011;6522;49.622;6.126;2023-06-22T13:48:38;3.90;;;3.60;;
12908;SDS011;6522;49.622;6.126;2023-06-22T13:51:25;3.00;;;2.80;;
12908;SDS011;6522;49.622;6.126;2023-06-22T13:54:11;2.67;;;2.47;;
12908;SDS011;6522;49.622;6.126;2023-06-22T13:56:58;2.30;;;2.10;;
12908;SDS011;6522;49.622;6.126;2023-06-22T13:59:45;3.00;;;2.80;;
12908;SDS011;6522;49.622;6.126;2023-06-22T14:02:31;2.60;;;2.40;;
12908;SDS011;6522;49.622;6.126;2023-06-22T14:05:18;2.60;;;2.40;;
12908;SDS011;6522;49.622;6.126;2023-06-22T14:08:05;2.60;;;2.40;;
12908;SDS011;6522;49.622;6.126;2023-06-22T14:10:51;2.70;;;2.50;;
12908;SDS011;6522;49.622;6.126;2023-06-22T14:13:38;2.63;;;2.43;;
12908;SDS011;6522;49.622;6.126;2023-06-22T14:16:25;2.83;;;2.63;;
12908;SDS011;6522;49.622;6.126;2023-06-22T14:19:12;3.33;;;3.13;;
12908;SDS011;6522;49.622;6.126;2023-06-22T14:21:59;2.90;;;2.70;;
12908;SDS011;6522;49.622;6.126;2023-06-22T14:24:46;11.53;;;8.33;;
12908;SDS011;6522;49.622;6.126;2023-06-22T14:27:32;8.30;;;7.70;;
12908;SDS011;6522;49.622;6.126;2023-06-22T14:30:19;10.45;;;7.50;;
12908;SDS011;6522;49.622;6.126;2023-06-22T14:33:05;9.00;;;8.17;;
12908;SDS011;6522;49.622;6.126;2023-06-22T14:35:52;8.50;;;7.90;;
12908;SDS011;6522;49.622;6.126;2023-06-22T14:38:39;9.47;;;8.53;;
12908;SDS011;6522;49.622;6.126;2023-06-22T14:41:26;9.20;;;7.93;;
12908;SDS011;6522;49.622;6.126;2023-06-22T14:44:13;8.77;;;8.07;;
12908;SDS011;6522;49.622;6.126;2023-06-22T14:46:59;7.37;;;6.67;;
12908;SDS011;6522;49.622;6.126;2023-06-22T14:49:47;14.80;;;7.20;;
12908;SDS011;6522;49.622;6.126;2023-06-22T14:52:33;6.67;;;6.07;;
12908;SDS011;6522;49.622;6.126;2023-06-22T14:55:19;5.87;;;5.47;;
12908;SDS011;6522;49.622;6.126;2023-06-22T14:58:06;6.73;;;6.13;;
12908;SDS011;6522;49.622;6.126;2023-06-22T15:00:52;6.33;;;5.83;;
12908;SDS011;6522;49.622;6.126;2023-06-22T15:03:39;6.40;;;6.00;;
12908;SDS011;6522;49.622;6.126;2023-06-22T15:06:26;6.03;;;5.63;;
12908;SDS011;6522;49.622;6.126;2023-06-22T15:09:13;7.47;;;6.77;;
12908;SDS011;6522;49.622;6.126;2023-06-22T15:12:00;6.47;;;6.07;;
12908;SDS011;6522;49.622;6.126;2023-06-22T15:14:47;7.20;;;6.80;;
12908;SDS011;6522;49.622;6.126;2023-06-22T15:17:33;7.30;;;6.90;;
12908;SDS011;6522;49.622;6.126;2023-06-22T15:20:20;7.43;;;6.93;;
12908;SDS011;6522;49.622;6.126;2023-06-22T15:23:07;6.77;;;6.37;;
12908;SDS011;6522;49.622;6.126;2023-06-22T15:25:53;11.83;;;6.90;;
12908;SDS011;6522;49.622;6.126;2023-06-22T15:28:40;7.70;;;7.10;;
12908;SDS011;6522;49.622;6.126;2023-06-22T15:31:27;7.20;;;6.80;;
12908;SDS011;6522;49.622;6.126;2023-06-22T15:34:14;6.87;;;6.47;;
12908;SDS011;6522;49.622;6.126;2023-06-22T15:37:00;6.90;;;6.50;;
12908;SDS011;6522;49.622;6.126;2023-06-22T15:39:47;7.70;;;7.30;;
12908;SDS011;6522;49.622;6.126;2023-06-22T15:42:34;7.10;;;6.70;;
12908;SDS011;6522;49.622;6.126;2023-06-22T15:45:21;7.90;;;7.50;;
12908;SDS011;6522;49.622;6.126;2023-06-22T15:48:07;8.50;;;8.10;;
12908;SDS011;6522;49.622;6.126;2023-06-22T15:50:54;8.47;;;8.07;;
12908;SDS011;6522;49.622;6.126;2023-06-22T15:53:41;7.70;;;7.30;;
12908;SDS011;6522;49.622;6.126;2023-06-22T15:56:28;7.37;;;6.97;;
12908;SDS011;6522;49.622;6.126;2023-06-22T15:59:14;7.23;;;6.93;;
12908;SDS011;6522;49.622;6.126;2023-06-22T16:02:01;6.63;;;6.23;;
12908;SDS011;6522;49.622;6.126;2023-06-22T16:04:48;7.13;;;6.77;;
12908;SDS011;6522;49.622;6.126;2023-06-22T16:07:35;6.70;;;6.30;;
12908;SDS011;6522;49.622;6.126;2023-06-22T16:10:21;5.43;;;5.13;;
12908;SDS011;6522;49.622;6.126;2023-06-22T16:13:08;6.00;;;5.57;;
12908;SDS011;6522;49.622;6.126;2023-06-22T16:15:55;5.70;;;5.30;;
12908;SDS011;6522;49.622;6.126;2023-06-22T16:18:42;4.78;;;4.47;;
12908;SDS011;6522;49.622;6.126;2023-06-22T16:21:28;5.87;;;5.47;;
12908;SDS011;6522;49.622;6.126;2023-06-22T16:24:15;4.18;;;3.87;;
12908;SDS011;6522;49.622;6.126;2023-06-22T16:27:02;5.07;;;4.67;;
12908;SDS011;6522;49.622;6.126;2023-06-22T16:29:49;4.70;;;4.05;;
12908;SDS011;6522;49.622;6.126;2023-06-22T16:32:35;4.30;;;3.90;;
12908;SDS011;6522;49.622;6.126;2023-06-22T16:35:22;2.80;;;2.60;;
12908;SDS011;6522;49.622;6.126;2023-06-22T16:38:09;4.00;;;3.70;;
12908;SDS011;6522;49.622;6.126;2023-06-22T16:40:56;3.08;;;2.80;;
12908;SDS011;6522;49.622;6.126;2023-06-22T16:43:43;3.40;;;3.10;;